sensor_id;sensor_type;location;lat;lon;timestamp;P1;durP1;ratioP1;P2;durP2;ratioP2
34060;SDS011;20336;-33.424;-70.638;2024-02-15T00:01:04;13.52;;;4.57;;
34060;SDS011;20336;-33.424;-70.638;2024-02-15T00:03:31;13.68;;;4.50;;
34060;SDS011;20336;-33.424;-70.638;2024-02-15T00:06:00;11.27;;;4.35;;
34060;SDS011;20336;-33.424;-70.638;2024-02-15T00:08:29;13.18;;;4.20;;
34060;SDS011;20336;-33.424;-70.638;2024-02-15T00:10:56;23.42;;;5.22;;
34060;SDS011;20336;-33.424;-70.638;2024-02-15T00:13:22;11.65;;;4.75;;
34060;SDS011;20336;-33.424;-70.638;2024-02-15T00:15:50;13.25;;;4.30;;
34060;SDS011;20336;-33.424;-70.638;2024-02-15T00:18:17;15.30;;;4.85;;
34060;SDS011;20336;-33.424;-70.638;2024-02-15T00:20:44;20.83;;;4.90;;
34060;SDS011;20336;-33.424;-70.638;2024-02-15T00:23:11;17.33;;;4.20;;
34060;SDS011;20336;-33.424;-70.638;2024-02-15T00:25:38;10.38;;;4.28;;
34060;SDS011;20336;-33.424;-70.638;2024-02-15T00:28:10;15.95;;;4.82;;
34060;SDS011;20336;-33.424;-70.638;2024-02-15T00:30:38;14.30;;;4.47;;
34060;SDS011;20336;-33.424;-70.638;2024-02-15T00:33:05;11.75;;;4.53;;
34060;SDS011;20336;-33.424;-70.638;2024-02-15T00:35:33;16.73;;;4.57;;
34060;SDS011;20336;-33.424;-70.638;2024-02-15T00:37:59;11.48;;;4.70;;
34060;SDS011;20336;-33.424;-70.638;2024-02-15T00:40:26;18.02;;;4.45;;
34060;SDS011;20336;-33.424;-70.638;2024-02-15T00:42:53;13.98;;;4.57;;
34060;SDS011;20336;-33.424;-70.638;2024-02-15T00:45:20;17.60;;;5.40;;
34060;SDS011;20336;-33.424;-70.638;2024-02-15T00:47:47;17.38;;;4.70;;
34060;SDS011;20336;-33.424;-70.638;2024-02-15T00:50:13;15.00;;;5.25;;
34060;SDS011;20336;-33.424;-70.638;2024-02-15T00:52:40;12.70;;;4.28;;
34060;SDS011;20336;-33.424;-70.638;2024-02-15T00:55:07;12.35;;;4.35;;
34060;SDS011;20336;-33.424;-70.638;2024-02-15T00:57:35;17.55;;;4.70;;
34060;SDS011;20336;-33.424;-70.638;2024-02-15T01:00:01;10.75;;;4.07;;
34060;SDS011;20336;-33.424;-70.638;2024-02-15T01:02:31;13.98;;;4.35;;
34060;SDS011;20336;-33.424;-70.638;2024-02-15T01:04:59;14.23;;;4.90;;
34060;SDS011;20336;-33.424;-70.638;2024-02-15T01:07:26;14.45;;;4.70;;
34060;SDS011;20336;-33.424;-70.638;2024-02-15T01:09:53;18.02;;;5.30;;
34060;SDS011;20336;-33.424;-70.638;2024-02-15T01:12:20;14.02;;;4.65;;
34060;SDS011;20336;-33.424;-70.638;2024-02-15T01:14:47;21.83;;;5.50;;
34060;SDS011;20336;-33.424;-70.638;2024-02-15T01:17:14;16.90;;;5.35;;
34060;SDS011;20336;-33.424;-70.638;2024-02-15T01:19:42;16.60;;;4.90;;
34060;SDS011;20336;-33.424;-70.638;2024-02-15T01:22:09;14.63;;;5.07;;
34060;SDS011;20336;-33.424;-70.638;2024-02-15T01:24:36;14.07;;;5.07;;
34060;SDS011;20336;-33.424;-70.638;2024-02-15T01:27:03;13.48;;;4.72;;
34060;SDS011;20336;-33.424;-70.638;2024-02-15T01:29:31;14.15;;;4.60;;
34060;SDS011;20336;-33.424;-70.638;2024-02-15T01:31:58;15.35;;;4.93;;
34060;SDS011;20336;-33.424;-70.638;2024-02-15T01:34:25;6.70;;;3.90;;
34060;SDS011;20336;-33.424;-70.638;2024-02-15T01:36:51;13.55;;;4.63;;
34060;SDS011;20336;-33.424;-70.638;2024-02-15T01:39:18;10.52;;;4.00;;
34060;SDS011;20336;-33.424;-70.638;2024-02-15T01:41:48;14.55;;;4.97;;
34060;SDS011;20336;-33.424;-70.638;2024-02-15T01:44:21;13.68;;;5.25;;
34060;SDS011;20336;-33.424;-70.638;2024-02-15T01:46:50;17.42;;;5.45;;
34060;SDS011;20336;-33.424;-70.638;2024-02-15T01:49:21;15.05;;;5.18;;
34060;SDS011;20336;-33.424;-70.638;2024-02-15T01:51:49;12.05;;;5.00;;
34060;SDS011;20336;-33.424;-70.638;2024-02-15T01:54:16;15.68;;;4.97;;
34060;SDS011;20336;-33.424;-70.638;2024-02-15T01:56:43;13.80;;;5.03;;
34060;SDS011;20336;-33.424;-70.638;2024-02-15T01:59:11;14.48;;;4.82;;
34060;SDS011;20336;-33.424;-70.638;2024-02-15T02:01:38;12.52;;;4.78;;
34060;SDS011;20336;-33.424;-70.638;2024-02-15T02:04:05;13.93;;;4.63;;
34060;SDS011;20336;-33.424;-70.638;2024-02-15T02:06:33;25.25;;;5.38;;
34060;SDS011;20336;-33.424;-70.638;2024-02-15T02:09:00;12.75;;;5.40;;
34060;SDS011;20336;-33.424;-70.638;2024-02-15T02:11:27;12.70;;;4.85;;
34060;SDS011;20336;-33.424;-70.638;2024-02-15T02:13:55;14.05;;;4.78;;
34060;SDS011;20336;-33.424;-70.638;2024-02-15T02:16:25;10.90;;;4.72;;
34060;SDS011;20336;-33.424;-70.638;2024-02-15T02:18:53;13.23;;;5.50;;
34060;SDS011;20336;-33.424;-70.638;2024-02-15T02:21:21;15.10;;;5.40;;
34060;SDS011;20336;-33.424;-70.638;2024-02-15T02:23:52;12.15;;;4.65;;
34060;SDS011;20336;-33.424;-70.638;2024-02-15T02:26:20;12.65;;;5.22;;
34060;SDS011;20336;-33.424;-70.638;2024-02-15T02:28:51;13.20;;;5.32;;
34060;SDS011;20336;-33.424;-70.638;2024-02-15T02:31:21;13.32;;;5.50;;
34060;SDS011;20336;-33.424;-70.638;2024-02-15T02:33:52;13.32;;;5.25;;
34060;SDS011;20336;-33.424;-70.638;2024-02-15T02:36:19;13.60;;;5.00;;
34060;SDS011;20336;-33.424;-70.638;2024-02-15T02:38:46;14.32;;;6.03;;
34060;SDS011;20336;-33.424;-70.638;2024-02-15T02:41:16;14.63;;;4.80;;
34060;SDS011;20336;-33.424;-70.638;2024-02-15T02:43:44;15.38;;;5.65;;
34060;SDS011;20336;-33.424;-70.638;2024-02-15T02:46:11;13.95;;;4.95;;
34060;SDS011;20336;-33.424;-70.638;2024-02-15T02:48:39;13.98;;;5.35;;
34060;SDS011;20336;-33.424;-70.638;2024-02-15T02:51:06;14.65;;;5.40;;
34060;SDS011;20336;-33.424;-70.638;2024-02-15T02:53:33;14.10;;;5.22;;
34060;SDS011;20336;-33.424;-70.638;2024-02-15T02:56:01;13.18;;;5.40;;
34060;SDS011;20336;-33.424;-70.638;2024-02-15T02:58:29;14.02;;;5.40;;
34060;SDS011;20336;-33.424;-70.638;2024-02-15T03:00:56;14.10;;;5.55;;
34060;SDS011;20336;-33.424;-70.638;2024-02-15T03:03:26;13.68;;;5.22;;
34060;SDS011;20336;-33.424;-70.638;2024-02-15T03:05:52;12.32;;;4.60;;
34060;SDS011;20336;-33.424;-70.638;2024-02-15T03:08:19;10.68;;;5.43;;
34060;SDS011;20336;-33.424;-70.638;2024-02-15T03:10:47;10.68;;;4.50;;
34060;SDS011;20336;-33.424;-70.638;2024-02-15T03:13:14;8.10;;;4.45;;
34060;SDS011;20336;-33.424;-70.638;2024-02-15T03:15:44;11.43;;;4.40;;
34060;SDS011;20336;-33.424;-70.638;2024-02-15T03:18:15;9.57;;;4.55;;
34060;SDS011;20336;-33.424;-70.638;2024-02-15T03:20:42;12.63;;;4.45;;
34060;SDS011;20336;-33.424;-70.638;2024-02-15T03:23:10;17.50;;;5.40;;
34060;SDS011;20336;-33.424;-70.638;2024-02-15T03:25:37;13.43;;;5.10;;
34060;SDS011;20336;-33.424;-70.638;2024-02-15T03:28:03;11.43;;;5.28;;
34060;SDS011;20336;-33.424;-70.638;2024-02-15T03:30:31;10.70;;;4.57;;
34060;SDS011;20336;-33.424;-70.638;2024-02-15T03:33:01;12.05;;;5.10;;
34060;SDS011;20336;-33.424;-70.638;2024-02-15T03:35:30;13.77;;;5.00;;
34060;SDS011;20336;-33.424;-70.638;2024-02-15T03:37:57;13.63;;;4.80;;
34060;SDS011;20336;-33.424;-70.638;2024-02-15T03:40:24;11.30;;;4.78;;
34060;SDS011;20336;-33.424;-70.638;2024-02-15T03:42:52;13.57;;;4.72;;
34060;SDS011;20336;-33.424;-70.638;2024-02-15T03:45:19;15.68;;;4.75;;
34060;SDS011;20336;-33.424;-70.638;2024-02-15T03:47:48;13.82;;;5.10;;
34060;SDS011;20336;-33.424;-70.638;2024-02-15T03:50:15;11.80;;;4.53;;
34060;SDS011;20336;-33.424;-70.638;2024-02-15T03:52:44;11.63;;;4.45;;
34060;SDS011;20336;-33.424;-70.638;2024-02-15T03:55:11;12.45;;;4.75;;
34060;SDS011;20336;-33.424;-70.638;2024-02-15T03:57:39;11.20;;;4.93;;
34060;SDS011;20336;-33.424;-70.638;2024-02-15T04:00:09;10.23;;;4.22;;
34060;SDS011;20336;-33.424;-70.638;2024-02-15T04:02:36;9.88;;;4.43;;
34060;SDS011;20336;-33.424;-70.638;2024-02-15T04:05:05;10.32;;;4.82;;
34060;SDS011;20336;-33.424;-70.638;2024-02-15T04:07:34;10.23;;;4.45;;
34060;SDS011;20336;-33.424;-70.638;2024-02-15T04:10:03;10.25;;;4.40;;
34060;SDS011;20336;-33.424;-70.638;2024-02-15T04:12:30;10.25;;;4.93;;
34060;SDS011;20336;-33.424;-70.638;2024-02-15T04:14:57;13.73;;;5.40;;
34060;SDS011;20336;-33.424;-70.638;2024-02-15T04:17:30;11.85;;;4.25;;
34060;SDS011;20336;-33.424;-70.638;2024-02-15T04:20:00;11.10;;;4.85;;
34060;SDS011;20336;-33.424;-70.638;2024-02-15T04:22:29;11.95;;;4.57;;
34060;SDS011;20336;-33.424;-70.638;2024-02-15T04:25:02;13.68;;;4.85;;
34060;SDS011;20336;-33.424;-70.638;2024-02-15T04:27:29;11.90;;;5.07;;
34060;SDS011;20336;-33.424;-70.638;2024-02-15T04:29:56;10.20;;;5.28;;
34060;SDS011;20336;-33.424;-70.638;2024-02-15T04:32:23;14.10;;;4.88;;
34060;SDS011;20336;-33.424;-70.638;2024-02-15T04:34:49;13.57;;;5.35;;
34060;SDS011;20336;-33.424;-70.638;2024-02-15T04:37:17;13.40;;;4.93;;
34060;SDS011;20336;-33.424;-70.638;2024-02-15T04:39:46;8.18;;;4.82;;
34060;SDS011;20336;-33.424;-70.638;2024-02-15T04:42:13;12.68;;;5.28;;
34060;SDS011;20336;-33.424;-70.638;2024-02-15T04:44:41;13.05;;;5.47;;
34060;SDS011;20336;-33.424;-70.638;2024-02-15T04:47:08;14.32;;;5.20;;
34060;SDS011;20336;-33.424;-70.638;2024-02-15T04:49:35;14.05;;;5.47;;
34060;SDS011;20336;-33.424;-70.638;2024-02-15T04:52:05;14.20;;;5.22;;
34060;SDS011;20336;-33.424;-70.638;2024-02-15T04:54:32;10.18;;;5.20;;
34060;SDS011;20336;-33.424;-70.638;2024-02-15T04:56:59;12.25;;;5.53;;
34060;SDS011;20336;-33.424;-70.638;2024-02-15T04:59:26;11.82;;;5.80;;
34060;SDS011;20336;-33.424;-70.638;2024-02-15T05:01:54;11.25;;;5.28;;
34060;SDS011;20336;-33.424;-70.638;2024-02-15T05:04:24;11.60;;;5.15;;
34060;SDS011;20336;-33.424;-70.638;2024-02-15T05:06:51;15.38;;;5.97;;
34060;SDS011;20336;-33.424;-70.638;2024-02-15T05:09:18;9.80;;;4.80;;
34060;SDS011;20336;-33.424;-70.638;2024-02-15T05:11:45;11.80;;;5.05;;
34060;SDS011;20336;-33.424;-70.638;2024-02-15T05:14:13;14.82;;;5.30;;
34060;SDS011;20336;-33.424;-70.638;2024-02-15T05:16:47;11.18;;;5.03;;
34060;SDS011;20336;-33.424;-70.638;2024-02-15T05:19:17;16.05;;;5.18;;
34060;SDS011;20336;-33.424;-70.638;2024-02-15T05:21:44;14.65;;;5.80;;
34060;SDS011;20336;-33.424;-70.638;2024-02-15T05:24:17;14.93;;;5.18;;
34060;SDS011;20336;-33.424;-70.638;2024-02-15T05:26:45;14.98;;;5.03;;
34060;SDS011;20336;-33.424;-70.638;2024-02-15T05:29:15;15.30;;;4.85;;
34060;SDS011;20336;-33.424;-70.638;2024-02-15T05:31:42;12.88;;;5.03;;
34060;SDS011;20336;-33.424;-70.638;2024-02-15T05:34:10;12.50;;;4.85;;
34060;SDS011;20336;-33.424;-70.638;2024-02-15T05:36:37;16.92;;;5.10;;
34060;SDS011;20336;-33.424;-70.638;2024-02-15T05:39:04;14.88;;;5.13;;
34060;SDS011;20336;-33.424;-70.638;2024-02-15T05:41:31;11.82;;;5.03;;
34060;SDS011;20336;-33.424;-70.638;2024-02-15T05:43:58;11.02;;;4.45;;
34060;SDS011;20336;-33.424;-70.638;2024-02-15T05:46:25;13.45;;;5.13;;
34060;SDS011;20336;-33.424;-70.638;2024-02-15T05:48:53;11.57;;;4.50;;
34060;SDS011;20336;-33.424;-70.638;2024-02-15T05:51:21;11.02;;;4.70;;
34060;SDS011;20336;-33.424;-70.638;2024-02-15T05:53:49;13.75;;;5.57;;
34060;SDS011;20336;-33.424;-70.638;2024-02-15T05:56:16;14.98;;;4.95;;
34060;SDS011;20336;-33.424;-70.638;2024-02-15T05:58:42;12.13;;;4.90;;
34060;SDS011;20336;-33.424;-70.638;2024-02-15T06:01:09;12.90;;;5.05;;
34060;SDS011;20336;-33.424;-70.638;2024-02-15T06:03:38;12.05;;;5.13;;
34060;SDS011;20336;-33.424;-70.638;2024-02-15T06:06:06;9.45;;;4.75;;
34060;SDS011;20336;-33.424;-70.638;2024-02-15T06:08:33;12.18;;;5.15;;
34060;SDS011;20336;-33.424;-70.638;2024-02-15T06:11:00;14.02;;;5.38;;
34060;SDS011;20336;-33.424;-70.638;2024-02-15T06:13:27;14.05;;;5.63;;
34060;SDS011;20336;-33.424;-70.638;2024-02-15T06:15:54;9.65;;;5.43;;
34060;SDS011;20336;-33.424;-70.638;2024-02-15T06:18:24;9.80;;;4.68;;
34060;SDS011;20336;-33.424;-70.638;2024-02-15T06:20:53;17.85;;;5.43;;
34060;SDS011;20336;-33.424;-70.638;2024-02-15T06:23:22;13.95;;;5.15;;
34060;SDS011;20336;-33.424;-70.638;2024-02-15T06:25:52;14.73;;;5.38;;
34060;SDS011;20336;-33.424;-70.638;2024-02-15T06:28:19;14.07;;;6.05;;
34060;SDS011;20336;-33.424;-70.638;2024-02-15T06:31:04;13.35;;;5.38;;
34060;SDS011;20336;-33.424;-70.638;2024-02-15T06:33:49;14.18;;;5.50;;
34060;SDS011;20336;-33.424;-70.638;2024-02-15T06:36:38;13.05;;;5.03;;
34060;SDS011;20336;-33.424;-70.638;2024-02-15T06:39:34;16.08;;;5.47;;
34060;SDS011;20336;-33.424;-70.638;2024-02-15T06:42:08;13.07;;;5.22;;
34060;SDS011;20336;-33.424;-70.638;2024-02-15T06:44:37;10.73;;;5.18;;
34060;SDS011;20336;-33.424;-70.638;2024-02-15T06:47:07;9.18;;;5.00;;
34060;SDS011;20336;-33.424;-70.638;2024-02-15T06:49:39;16.60;;;5.25;;
34060;SDS011;20336;-33.424;-70.638;2024-02-15T06:52:06;9.80;;;4.45;;
34060;SDS011;20336;-33.424;-70.638;2024-02-15T06:54:34;14.32;;;5.53;;
34060;SDS011;20336;-33.424;-70.638;2024-02-15T06:57:03;11.93;;;4.97;;
34060;SDS011;20336;-33.424;-70.638;2024-02-15T06:59:30;10.73;;;4.80;;
34060;SDS011;20336;-33.424;-70.638;2024-02-15T07:02:00;12.45;;;5.25;;
34060;SDS011;20336;-33.424;-70.638;2024-02-15T07:04:30;13.65;;;4.82;;
34060;SDS011;20336;-33.424;-70.638;2024-02-15T07:06:57;11.15;;;5.45;;
34060;SDS011;20336;-33.424;-70.638;2024-02-15T07:09:25;13.25;;;4.60;;
34060;SDS011;20336;-33.424;-70.638;2024-02-15T07:11:53;9.25;;;5.30;;
34060;SDS011;20336;-33.424;-70.638;2024-02-15T07:14:20;16.05;;;5.72;;
34060;SDS011;20336;-33.424;-70.638;2024-02-15T07:16:47;13.93;;;5.70;;
34060;SDS011;20336;-33.424;-70.638;2024-02-15T07:19:14;12.80;;;5.72;;
34060;SDS011;20336;-33.424;-70.638;2024-02-15T07:21:42;17.63;;;5.50;;
34060;SDS011;20336;-33.424;-70.638;2024-02-15T07:24:09;11.13;;;5.53;;
34060;SDS011;20336;-33.424;-70.638;2024-02-15T07:26:36;13.82;;;5.07;;
34060;SDS011;20336;-33.424;-70.638;2024-02-15T07:29:03;11.38;;;5.22;;
34060;SDS011;20336;-33.424;-70.638;2024-02-15T07:31:31;12.77;;;5.43;;
34060;SDS011;20336;-33.424;-70.638;2024-02-15T07:34:01;13.10;;;6.10;;
34060;SDS011;20336;-33.424;-70.638;2024-02-15T07:36:28;11.00;;;5.57;;
34060;SDS011;20336;-33.424;-70.638;2024-02-15T07:38:55;17.13;;;5.43;;
34060;SDS011;20336;-33.424;-70.638;2024-02-15T07:41:26;12.57;;;4.63;;
34060;SDS011;20336;-33.424;-70.638;2024-02-15T07:43:53;11.90;;;5.40;;
34060;SDS011;20336;-33.424;-70.638;2024-02-15T07:46:21;11.68;;;5.45;;
34060;SDS011;20336;-33.424;-70.638;2024-02-15T07:48:49;15.30;;;5.90;;
34060;SDS011;20336;-33.424;-70.638;2024-02-15T07:51:16;10.05;;;5.15;;
34060;SDS011;20336;-33.424;-70.638;2024-02-15T07:53:48;13.10;;;4.95;;
34060;SDS011;20336;-33.424;-70.638;2024-02-15T07:56:15;11.88;;;5.30;;
34060;SDS011;20336;-33.424;-70.638;2024-02-15T07:58:43;16.10;;;5.30;;
34060;SDS011;20336;-33.424;-70.638;2024-02-15T08:01:13;14.85;;;5.72;;
34060;SDS011;20336;-33.424;-70.638;2024-02-15T08:03:41;14.40;;;5.72;;
34060;SDS011;20336;-33.424;-70.638;2024-02-15T08:06:12;13.63;;;5.40;;
34060;SDS011;20336;-33.424;-70.638;2024-02-15T08:08:43;12.18;;;5.38;;
34060;SDS011;20336;-33.424;-70.638;2024-02-15T08:11:14;12.88;;;5.43;;
34060;SDS011;20336;-33.424;-70.638;2024-02-15T08:13:43;10.65;;;5.43;;
34060;SDS011;20336;-33.424;-70.638;2024-02-15T08:16:11;14.75;;;6.20;;
34060;SDS011;20336;-33.424;-70.638;2024-02-15T08:18:40;13.20;;;5.63;;
34060;SDS011;20336;-33.424;-70.638;2024-02-15T08:21:09;12.55;;;5.68;;
34060;SDS011;20336;-33.424;-70.638;2024-02-15T08:23:39;14.18;;;6.05;;
34060;SDS011;20336;-33.424;-70.638;2024-02-15T08:26:06;11.35;;;5.40;;
34060;SDS011;20336;-33.424;-70.638;2024-02-15T08:28:36;16.65;;;5.35;;
34060;SDS011;20336;-33.424;-70.638;2024-02-15T08:31:03;11.27;;;5.68;;
34060;SDS011;20336;-33.424;-70.638;2024-02-15T08:33:30;11.75;;;5.43;;
34060;SDS011;20336;-33.424;-70.638;2024-02-15T08:35:57;13.98;;;5.40;;
34060;SDS011;20336;-33.424;-70.638;2024-02-15T08:38:26;14.38;;;5.50;;
34060;SDS011;20336;-33.424;-70.638;2024-02-15T08:40:53;15.02;;;5.82;;
34060;SDS011;20336;-33.424;-70.638;2024-02-15T08:43:20;15.10;;;5.90;;
34060;SDS011;20336;-33.424;-70.638;2024-02-15T08:45:47;15.98;;;6.20;;
34060;SDS011;20336;-33.424;-70.638;2024-02-15T08:48:14;12.77;;;5.32;;
34060;SDS011;20336;-33.424;-70.638;2024-02-15T08:50:41;10.80;;;5.20;;
34060;SDS011;20336;-33.424;-70.638;2024-02-15T08:53:11;13.60;;;5.72;;
34060;SDS011;20336;-33.424;-70.638;2024-02-15T08:55:37;12.82;;;5.75;;
34060;SDS011;20336;-33.424;-70.638;2024-02-15T08:58:04;11.73;;;5.38;;
34060;SDS011;20336;-33.424;-70.638;2024-02-15T09:00:31;14.20;;;5.72;;
34060;SDS011;20336;-33.424;-70.638;2024-02-15T09:02:58;9.75;;;5.97;;
34060;SDS011;20336;-33.424;-70.638;2024-02-15T09:05:25;15.85;;;6.75;;
34060;SDS011;20336;-33.424;-70.638;2024-02-15T09:07:53;17.85;;;6.25;;
34060;SDS011;20336;-33.424;-70.638;2024-02-15T09:10:20;14.68;;;6.38;;
34060;SDS011;20336;-33.424;-70.638;2024-02-15T09:12:48;19.33;;;6.75;;
34060;SDS011;20336;-33.424;-70.638;2024-02-15T09:15:15;235.60;;;20.42;;
34060;SDS011;20336;-33.424;-70.638;2024-02-15T09:17:43;91.15;;;11.57;;
34060;SDS011;20336;-33.424;-70.638;2024-02-15T09:20:14;21.48;;;7.32;;
34060;SDS011;20336;-33.424;-70.638;2024-02-15T09:25:11;18.58;;;6.43;;
34060;SDS011;20336;-33.424;-70.638;2024-02-15T09:27:39;14.20;;;6.00;;
34060;SDS011;20336;-33.424;-70.638;2024-02-15T09:30:06;18.25;;;6.13;;
34060;SDS011;20336;-33.424;-70.638;2024-02-15T09:32:41;16.98;;;5.95;;
34060;SDS011;20336;-33.424;-70.638;2024-02-15T09:35:09;12.65;;;5.75;;
34060;SDS011;20336;-33.424;-70.638;2024-02-15T09:37:44;14.23;;;6.15;;
34060;SDS011;20336;-33.424;-70.638;2024-02-15T09:40:12;18.38;;;5.85;;
34060;SDS011;20336;-33.424;-70.638;2024-02-15T09:42:40;13.43;;;5.90;;
34060;SDS011;20336;-33.424;-70.638;2024-02-15T09:45:10;15.95;;;5.13;;
34060;SDS011;20336;-33.424;-70.638;2024-02-15T09:47:41;13.07;;;6.10;;
34060;SDS011;20336;-33.424;-70.638;2024-02-15T09:50:09;12.80;;;5.93;;
34060;SDS011;20336;-33.424;-70.638;2024-02-15T09:52:39;11.07;;;5.32;;
34060;SDS011;20336;-33.424;-70.638;2024-02-15T09:55:07;12.52;;;5.68;;
34060;SDS011;20336;-33.424;-70.638;2024-02-15T09:57:39;20.48;;;6.90;;
34060;SDS011;20336;-33.424;-70.638;2024-02-15T10:00:06;15.23;;;6.03;;
34060;SDS011;20336;-33.424;-70.638;2024-02-15T10:02:33;16.33;;;6.15;;
34060;SDS011;20336;-33.424;-70.638;2024-02-15T10:05:02;14.35;;;6.35;;
34060;SDS011;20336;-33.424;-70.638;2024-02-15T10:07:29;12.23;;;5.82;;
34060;SDS011;20336;-33.424;-70.638;2024-02-15T10:09:56;16.35;;;5.90;;
34060;SDS011;20336;-33.424;-70.638;2024-02-15T10:12:23;14.60;;;6.15;;
34060;SDS011;20336;-33.424;-70.638;2024-02-15T10:15:04;14.25;;;6.32;;
34060;SDS011;20336;-33.424;-70.638;2024-02-15T10:17:33;14.38;;;5.40;;
34060;SDS011;20336;-33.424;-70.638;2024-02-15T10:20:05;16.60;;;6.18;;
34060;SDS011;20336;-33.424;-70.638;2024-02-15T10:22:32;14.90;;;5.65;;
34060;SDS011;20336;-33.424;-70.638;2024-02-15T10:25:11;16.08;;;6.07;;
34060;SDS011;20336;-33.424;-70.638;2024-02-15T10:27:41;13.90;;;5.93;;
34060;SDS011;20336;-33.424;-70.638;2024-02-15T10:30:18;13.10;;;6.60;;
34060;SDS011;20336;-33.424;-70.638;2024-02-15T10:32:45;16.58;;;6.00;;
34060;SDS011;20336;-33.424;-70.638;2024-02-15T10:35:20;21.70;;;6.55;;
34060;SDS011;20336;-33.424;-70.638;2024-02-15T10:37:49;19.65;;;6.65;;
34060;SDS011;20336;-33.424;-70.638;2024-02-15T10:40:22;12.65;;;6.35;;
34060;SDS011;20336;-33.424;-70.638;2024-02-15T10:42:50;18.30;;;6.35;;
34060;SDS011;20336;-33.424;-70.638;2024-02-15T10:45:18;16.27;;;6.47;;
34060;SDS011;20336;-33.424;-70.638;2024-02-15T10:47:45;20.20;;;6.38;;
34060;SDS011;20336;-33.424;-70.638;2024-02-15T10:50:16;16.88;;;6.43;;
34060;SDS011;20336;-33.424;-70.638;2024-02-15T10:52:55;21.75;;;6.80;;
34060;SDS011;20336;-33.424;-70.638;2024-02-15T10:57:52;16.20;;;6.57;;
34060;SDS011;20336;-33.424;-70.638;2024-02-15T11:00:21;18.27;;;6.75;;
34060;SDS011;20336;-33.424;-70.638;2024-02-15T11:05:18;18.58;;;6.38;;
34060;SDS011;20336;-33.424;-70.638;2024-02-15T11:07:49;14.48;;;6.43;;
34060;SDS011;20336;-33.424;-70.638;2024-02-15T11:10:17;17.15;;;6.72;;
34060;SDS011;20336;-33.424;-70.638;2024-02-15T11:12:44;18.17;;;6.30;;
34060;SDS011;20336;-33.424;-70.638;2024-02-15T11:15:11;19.52;;;6.90;;
34060;SDS011;20336;-33.424;-70.638;2024-02-15T11:20:08;24.77;;;6.97;;
34060;SDS011;20336;-33.424;-70.638;2024-02-15T11:22:37;15.77;;;6.68;;
34060;SDS011;20336;-33.424;-70.638;2024-02-15T11:25:08;19.40;;;6.65;;
34060;SDS011;20336;-33.424;-70.638;2024-02-15T11:27:37;14.73;;;7.18;;
34060;SDS011;20336;-33.424;-70.638;2024-02-15T11:30:07;14.65;;;6.88;;
34060;SDS011;20336;-33.424;-70.638;2024-02-15T11:32:46;21.85;;;7.07;;
34060;SDS011;20336;-33.424;-70.638;2024-02-15T11:35:18;19.52;;;6.82;;
34060;SDS011;20336;-33.424;-70.638;2024-02-15T11:42:48;15.48;;;7.68;;
34060;SDS011;20336;-33.424;-70.638;2024-02-15T11:45:16;15.50;;;6.90;;
34060;SDS011;20336;-33.424;-70.638;2024-02-15T11:47:49;20.95;;;7.85;;
34060;SDS011;20336;-33.424;-70.638;2024-02-15T11:50:20;20.25;;;8.18;;
34060;SDS011;20336;-33.424;-70.638;2024-02-15T11:52:47;17.63;;;7.43;;
34060;SDS011;20336;-33.424;-70.638;2024-02-15T11:55:21;18.83;;;7.53;;
34060;SDS011;20336;-33.424;-70.638;2024-02-15T11:57:58;17.10;;;7.95;;
34060;SDS011;20336;-33.424;-70.638;2024-02-15T12:00:51;18.92;;;7.88;;
34060;SDS011;20336;-33.424;-70.638;2024-02-15T12:03:36;19.63;;;7.85;;
34060;SDS011;20336;-33.424;-70.638;2024-02-15T12:06:22;20.35;;;7.53;;
34060;SDS011;20336;-33.424;-70.638;2024-02-15T12:09:07;18.77;;;8.52;;
34060;SDS011;20336;-33.424;-70.638;2024-02-15T12:11:57;17.77;;;8.15;;
34060;SDS011;20336;-33.424;-70.638;2024-02-15T12:14:43;16.83;;;7.25;;
34060;SDS011;20336;-33.424;-70.638;2024-02-15T12:17:28;19.15;;;8.98;;
34060;SDS011;20336;-33.424;-70.638;2024-02-15T12:20:13;17.58;;;8.95;;
34060;SDS011;20336;-33.424;-70.638;2024-02-15T12:22:40;20.75;;;8.80;;
34060;SDS011;20336;-33.424;-70.638;2024-02-15T12:25:13;19.27;;;9.55;;
34060;SDS011;20336;-33.424;-70.638;2024-02-15T12:27:41;20.75;;;8.77;;
34060;SDS011;20336;-33.424;-70.638;2024-02-15T12:30:17;19.05;;;9.30;;
34060;SDS011;20336;-33.424;-70.638;2024-02-15T12:32:48;18.40;;;8.95;;
34060;SDS011;20336;-33.424;-70.638;2024-02-15T12:35:19;21.42;;;8.88;;
34060;SDS011;20336;-33.424;-70.638;2024-02-15T12:37:46;16.40;;;9.27;;
34060;SDS011;20336;-33.424;-70.638;2024-02-15T12:40:13;24.65;;;9.35;;
34060;SDS011;20336;-33.424;-70.638;2024-02-15T12:42:44;16.92;;;8.98;;
34060;SDS011;20336;-33.424;-70.638;2024-02-15T12:45:15;22.02;;;9.40;;
34060;SDS011;20336;-33.424;-70.638;2024-02-15T12:47:52;17.20;;;9.20;;
34060;SDS011;20336;-33.424;-70.638;2024-02-15T12:50:20;21.50;;;9.52;;
34060;SDS011;20336;-33.424;-70.638;2024-02-15T12:52:48;21.98;;;9.82;;
34060;SDS011;20336;-33.424;-70.638;2024-02-15T12:55:16;18.75;;;9.40;;
34060;SDS011;20336;-33.424;-70.638;2024-02-15T12:57:45;22.65;;;10.68;;
34060;SDS011;20336;-33.424;-70.638;2024-02-15T13:00:14;28.48;;;11.18;;
34060;SDS011;20336;-33.424;-70.638;2024-02-15T13:02:44;25.45;;;12.10;;
34060;SDS011;20336;-33.424;-70.638;2024-02-15T13:05:14;24.77;;;11.93;;
34060;SDS011;20336;-33.424;-70.638;2024-02-15T13:07:44;28.30;;;12.35;;
34060;SDS011;20336;-33.424;-70.638;2024-02-15T13:10:11;27.38;;;12.32;;
34060;SDS011;20336;-33.424;-70.638;2024-02-15T13:12:40;36.72;;;14.18;;
34060;SDS011;20336;-33.424;-70.638;2024-02-15T13:15:09;26.90;;;11.85;;
34060;SDS011;20336;-33.424;-70.638;2024-02-15T13:17:58;26.92;;;13.80;;
34060;SDS011;20336;-33.424;-70.638;2024-02-15T13:20:26;33.08;;;14.45;;
34060;SDS011;20336;-33.424;-70.638;2024-02-15T13:23:00;31.85;;;14.07;;
34060;SDS011;20336;-33.424;-70.638;2024-02-15T13:25:48;25.40;;;13.38;;
34060;SDS011;20336;-33.424;-70.638;2024-02-15T13:28:15;36.53;;;15.13;;
34060;SDS011;20336;-33.424;-70.638;2024-02-15T13:30:42;30.30;;;14.20;;
34060;SDS011;20336;-33.424;-70.638;2024-02-15T13:33:13;32.17;;;14.20;;
34060;SDS011;20336;-33.424;-70.638;2024-02-15T13:35:41;40.42;;;16.63;;
34060;SDS011;20336;-33.424;-70.638;2024-02-15T13:38:08;33.63;;;14.73;;
34060;SDS011;20336;-33.424;-70.638;2024-02-15T13:40:39;31.08;;;15.30;;
34060;SDS011;20336;-33.424;-70.638;2024-02-15T13:43:09;23.33;;;12.80;;
34060;SDS011;20336;-33.424;-70.638;2024-02-15T13:45:56;38.65;;;15.15;;
34060;SDS011;20336;-33.424;-70.638;2024-02-15T13:48:23;35.50;;;14.90;;
34060;SDS011;20336;-33.424;-70.638;2024-02-15T13:50:51;33.05;;;15.25;;
34060;SDS011;20336;-33.424;-70.638;2024-02-15T13:53:21;30.60;;;14.20;;
34060;SDS011;20336;-33.424;-70.638;2024-02-15T13:55:49;32.38;;;14.88;;
34060;SDS011;20336;-33.424;-70.638;2024-02-15T13:58:17;34.72;;;16.08;;
34060;SDS011;20336;-33.424;-70.638;2024-02-15T14:00:45;33.70;;;13.77;;
34060;SDS011;20336;-33.424;-70.638;2024-02-15T14:03:13;33.85;;;14.30;;
34060;SDS011;20336;-33.424;-70.638;2024-02-15T14:05:40;30.52;;;14.20;;
34060;SDS011;20336;-33.424;-70.638;2024-02-15T14:08:07;32.42;;;13.15;;
34060;SDS011;20336;-33.424;-70.638;2024-02-15T14:10:37;43.88;;;14.63;;
34060;SDS011;20336;-33.424;-70.638;2024-02-15T14:13:04;22.88;;;13.00;;
34060;SDS011;20336;-33.424;-70.638;2024-02-15T14:15:33;27.15;;;13.05;;
34060;SDS011;20336;-33.424;-70.638;2024-02-15T14:18:07;30.58;;;13.35;;
34060;SDS011;20336;-33.424;-70.638;2024-02-15T14:20:40;27.83;;;14.65;;
34060;SDS011;20336;-33.424;-70.638;2024-02-15T14:23:12;33.53;;;15.68;;